地図

経路データ

SID SEASON NUMBER BASIN SUBBASIN NAME ISO_TIME NATURE LAT LON WMO_WIND WMO_PRES WMO_AGENCY TRACK_TYPE DIST2LAND LANDFALL IFLAG USA_AGENCY USA_ATCF_ID USA_LAT USA_LON USA_RECORD USA_STATUS USA_WIND USA_PRES USA_SSHS USA_R34_NE USA_R34_SE USA_R34_SW USA_R34_NW USA_R50_NE USA_R50_SE USA_R50_SW USA_R50_NW USA_R64_NE USA_R64_SE USA_R64_SW USA_R64_NW USA_POCI USA_ROCI USA_RMW USA_EYE TOKYO_LAT TOKYO_LON TOKYO_GRADE TOKYO_WIND TOKYO_PRES TOKYO_R50_DIR TOKYO_R50_LONG TOKYO_R50_SHORT TOKYO_R30_DIR TOKYO_R30_LONG TOKYO_R30_SHORT TOKYO_LAND CMA_LAT CMA_LON CMA_CAT CMA_WIND CMA_PRES HKO_LAT HKO_LON HKO_CAT HKO_WIND HKO_PRES NEWDELHI_LAT NEWDELHI_LON NEWDELHI_GRADE NEWDELHI_WIND NEWDELHI_PRES NEWDELHI_CI NEWDELHI_DP NEWDELHI_POCI REUNION_LAT REUNION_LON REUNION_TYPE REUNION_WIND REUNION_PRES REUNION_TNUM REUNION_CI REUNION_RMW REUNION_R34_NE REUNION_R34_SE REUNION_R34_SW REUNION_R34_NW REUNION_R50_NE REUNION_R50_SE REUNION_R50_SW REUNION_R50_NW REUNION_R64_NE REUNION_R64_SE REUNION_R64_SW REUNION_R64_NW BOM_LAT BOM_LON BOM_TYPE BOM_WIND BOM_PRES BOM_TNUM BOM_CI BOM_RMW BOM_R34_NE BOM_R34_SE BOM_R34_SW BOM_R34_NW BOM_R50_NE BOM_R50_SE BOM_R50_SW BOM_R50_NW BOM_R64_NE BOM_R64_SE BOM_R64_SW BOM_R64_NW BOM_ROCI BOM_POCI BOM_EYE BOM_POS_METHOD BOM_PRES_METHOD NADI_LAT NADI_LON NADI_CAT NADI_WIND NADI_PRES WELLINGTON_LAT WELLINGTON_LON WELLINGTON_WIND WELLINGTON_PRES DS824_LAT DS824_LON DS824_STAGE DS824_WIND DS824_PRES TD9636_LAT TD9636_LON TD9636_STAGE TD9636_WIND TD9636_PRES TD9635_LAT TD9635_LON TD9635_WIND TD9635_PRES TD9635_ROCI NEUMANN_LAT NEUMANN_LON NEUMANN_CLASS NEUMANN_WIND NEUMANN_PRES MLC_LAT MLC_LON MLC_CLASS MLC_WIND MLC_PRES USA_GUST BOM_GUST BOM_GUST_PER REUNION_GUST REUNION_GUST_PER USA_SEAHGT USA_SEARAD_NE USA_SEARAD_SE USA_SEARAD_SW USA_SEARAD_NW STORM_SPEED STORM_DIR
1965207N21090 1965 63 NI BB NOT_NAMED 1965-07-25 18:00:00 TS 20.9000 89.7000 main 94 91 O________O____ jtwc_io IO031965 20.9000 89.7000 -1 20.9000 89.7000 TC 2 271
1965207N21090 1965 63 NI BB NOT_NAMED 1965-07-25 21:00:00 TS 20.9025 89.5975 main 91 88 P________P____ IO031965 20.9025 89.5975 -1 20.9025 89.5975 TC 2 270
1965207N21090 1965 63 NI BB NOT_NAMED 1965-07-26 00:00:00 TS 20.9000 89.5000 main 88 84 O________O____ jtwc_io IO031965 20.9000 89.5000 -1 20.9000 89.5000 TC 25 2 267
1965207N21090 1965 63 NI BB NOT_NAMED 1965-07-26 03:00:00 TS 20.8933 89.4066 main 84 80 P________PO___ IO031965 20.8925 89.4075 -1 20.8925 89.4075 TC 25 20.9000 89.4000 1 2 273
1965207N21090 1965 63 NI BB NOT_NAMED 1965-07-26 06:00:00 TS 20.9106 89.2922 main 80 67 O________OP___ jtwc_io IO031965 20.9000 89.3000 -1 20.9000 89.3000 TC 25 20.9532 89.2610 1 2 286
1965207N21090 1965 63 NI BB NOT_NAMED 1965-07-26 09:00:00 TS 20.9596 89.1521 main 67 67 P________PP___ IO031965 20.9425 89.1650 -1 20.9425 89.1650 TC 25 21.0051 89.1176 1 3 291
1965207N21090 1965 63 NI BB NOT_NAMED 1965-07-26 12:00:00 TS 21.0181 88.9885 main 67 55 O________OP___ jtwc_io IO031965 21.0000 89.0000 -1 21.0000 89.0000 TC 25 21.0544 88.9654 1 3 288
1965207N21090 1965 63 NI BB NOT_NAMED 1965-07-26 15:00:00 TS 21.0667 88.8050 main 56 56 P________PO___ IO031965 21.0500 88.8075 -1 21.0500 88.8075 TC 25 21.1000 88.8000 1 4 285
1965207N21090 1965 63 NI BB NOT_NAMED 1965-07-26 18:00:00 TS 21.1139 88.6061 main 56 44 O________OP___ jtwc_io IO031965 21.1000 88.6000 -1 21.1000 88.6000 TC 25 21.1418 88.6183 1 4 284
1965207N21090 1965 63 NI BB NOT_NAMED 1965-07-26 21:00:00 TS 21.1566 88.4074 main 44 44 P________PP___ IO031965 21.1425 88.4000 -1 21.1425 88.4000 TC 25 21.1849 88.4223 1 4 285
1965207N21090 1965 63 NI BB NOT_NAMED 1965-07-27 00:00:00 TS 21.2119 88.2051 main 44 35 O________OP___ jtwc_io IO031965 21.2000 88.2000 -1 21.2000 88.2000 TC 25 21.2356 88.2152 1 4 290
1965207N21090 1965 63 NI BB NOT_NAMED 1965-07-27 03:00:00 TS 21.2950 88.0050 main 39 33 P________PO___ IO031965 21.2924 88.0075 -1 21.2924 88.0075 TC 25 21.3000 88.0000 1 4 295
1965207N21090 1965 63 NI BB NOT_NAMED 1965-07-27 06:00:00 TS 21.3912 87.7913 main 33 22 O________OP___ jtwc_io IO031965 21.4000 87.8000 -1 21.4000 87.8000 TC 25 21.3735 87.7740 1 5 294
1965207N21090 1965 63 NI BB NOT_NAMED 1965-07-27 09:00:00 TS 21.4875 87.5475 main 15 0 P________PP___ IO031965 21.5000 87.5500 -1 21.5000 87.5500 TC 25 21.4625 87.5424 1 5 294
1965207N21090 1965 63 NI BB NOT_NAMED 1965-07-27 12:00:00 TS 21.5901 87.3049 main 0 0 O________OP___ jtwc_io IO031965 21.6000 87.3000 -1 21.6000 87.3000 TC 25 21.5703 87.3146 1 5 295
1965207N21090 1965 63 NI BB NOT_NAMED 1965-07-27 15:00:00 TS 21.6900 87.0899 main 0 0 P________PO___ IO031965 21.6850 87.0849 -1 21.6850 87.0849 TC 25 21.7000 87.1000 1 4 301
1965207N21090 1965 63 NI BB NOT_NAMED 1965-07-27 18:00:00 TS 21.8151 86.9035 main 0 0 O________OP___ jtwc_io IO031965 21.8000 86.9000 -1 21.8000 86.9000 TC 25 21.8452 86.9105 1 4 313
1965207N21090 1965 63 NI BB NOT_NAMED 1965-07-27 21:00:00 TS 21.9941 86.7449 main 0 0 P________PP___ IO031965 21.9849 86.7500 -1 21.9849 86.7500 TC 25 22.0123 86.7348 1 5 323
1965207N21090 1965 63 NI BB NOT_NAMED 1965-07-28 00:00:00 TS 22.1994 86.5889 main 0 0 O________OP___ jtwc_io IO031965 22.2000 86.6000 -1 22.2000 86.6000 TC 25 22.1983 86.5667 1 5 321
1965207N21090 1965 63 NI BB NOT_NAMED 1965-07-28 03:00:00 TS 22.3950 86.4000 main 0 0 P________PO___ IO031965 22.3925 86.4000 -1 22.3925 86.4000 TC 25 22.4000 86.4000 1 5 319
1965207N21090 1965 63 NI BB NOT_NAMED 1965-07-28 06:00:00 TS 22.6057 86.2119 main 0 0 O________OP___ jtwc_io IO031965 22.6000 86.2000 -1 22.6000 86.2000 TC 25 22.6142 86.2297 1 6 324
1965207N21090 1965 63 NI BB NOT_NAMED 1965-07-28 09:00:00 TS 22.8390 86.0453 main 0 0 P________PP___ IO031965 22.8400 86.0376 -1 22.8400 86.0376 TC 22.8377 86.0555 1 6 328
1965207N21090 1965 63 NI BB NOT_NAMED 1965-07-28 12:00:00 TS 23.0837 85.8893 main 0 0 O________OP___ jtwc_io IO031965 23.1000 85.9000 -1 23.1000 85.9000 TC 23.0674 85.8786 1 6 325
1965207N21090 1965 63 NI BB NOT_NAMED 1965-07-28 15:00:00 NR 23.3000 85.7000 main 0 __________O___ IO031965 -1 TC 23.3000 85.7000 1 6 321

IBTrACS Databaseについて

本データベースは、米国NOAAが公開する1842年以降の世界の熱帯低気圧のベストトラックデータアーカイブInternational Best Track Archive for Climate Stewardship (IBTrACS)を、ウェブで閲覧しやすい形式に変換したものです。

最終更新日:2021-10-21